Time;durP1;ratioP1;P1;durP2;ratioP2;P2;SDS_P1;SDS_P2;PMS_P1;PMS_P2;Temp;Humidity;BMP_temperature;BMP_pressure;BME280_temperature;BME280_humidity;BME280_pressure;Samples;Min_cycle;Max_cycle;Signal;HPM_P1;HPM_P2
2021/07/17 00:01:32;;;;;;;40.33;13.25;;;14.90;99.90;;;;;;5003447;28;20046;-67
2021/07/17 00:03:57;;;;;;;44.88;12.48;;;14.90;99.90;;;;;;4996398;28;20042;-67
2021/07/17 00:06:23;;;;;;;40.33;13.60;;;14.80;99.90;;;;;;5002850;28;20060;-67
2021/07/17 00:08:50;;;;;;;35.70;12.63;;;14.80;99.90;;;;;;4993488;28;20042;-67
2021/07/17 00:11:17;;;;;;;47.88;13.32;;;14.80;99.90;;;;;;4992182;28;20049;-67
2021/07/17 00:13:43;;;;;;;48.15;14.35;;;14.80;99.90;;;;;;5002950;28;20485;-67
2021/07/17 00:16:08;;;;;;;45.80;12.95;;;14.70;99.90;;;;;;4990519;28;20042;-67
2021/07/17 00:18:34;;;;;;;44.70;12.68;;;14.70;99.90;;;;;;5003284;28;20040;-67
2021/07/17 00:21:00;;;;;;;55.83;14.85;;;14.70;99.90;;;;;;4989986;28;20089;-67
2021/07/17 00:23:26;;;;;;;46.13;13.00;;;14.70;99.90;;;;;;5003638;28;20050;-67
2021/07/17 00:25:57;;;;;;;42.13;13.07;;;14.80;99.90;;;;;;4989843;28;20049;-67
2021/07/17 00:28:23;;;;;;;44.78;14.00;;;14.60;99.90;;;;;;4996530;28;20057;-67
2021/07/17 00:30:49;;;;;;;59.05;13.55;;;14.70;99.90;;;;;;4998772;28;20081;-67
2021/07/17 00:33:15;;;;;;;33.85;11.93;;;14.60;99.90;;;;;;4989787;28;20042;-67
2021/07/17 00:35:41;;;;;;;54.40;13.18;;;14.60;99.90;;;;;;4994571;28;20073;-67
2021/07/17 00:38:07;;;;;;;35.28;11.52;;;14.60;99.90;;;;;;4989534;28;20058;-67
2021/07/17 00:40:33;;;;;;;44.60;13.13;;;14.60;99.90;;;;;;4996746;28;20867;-67
2021/07/17 00:42:59;;;;;;;60.25;13.32;;;14.60;99.90;;;;;;4986450;28;20047;-67
2021/07/17 00:45:25;;;;;;;46.53;13.35;;;14.60;99.90;;;;;;4996791;28;20043;-67
2021/07/17 00:47:51;;;;;;;40.95;12.35;;;14.70;99.90;;;;;;4988897;28;20054;-67
2021/07/17 00:50:19;;;;;;;46.78;12.32;;;14.60;99.90;;;;;;4995516;28;20043;-67
2021/07/17 00:52:45;;;;;;;;;;;14.60;99.90;;;;;;4989157;28;20051;-67
2021/07/17 00:55:12;;;;;;;41.67;12.73;;;14.60;99.90;;;;;;4997616;28;19922;-67
2021/07/17 00:57:41;;;;;;;58.23;12.67;;;14.60;99.90;;;;;;4988863;28;20054;-67
2021/07/17 01:00:12;;;;;;;36.95;12.35;;;14.60;99.90;;;;;;4996389;28;20371;-67
2021/07/17 01:02:44;;;;;;;36.03;11.48;;;14.50;99.90;;;;;;5003626;28;20424;-67
2021/07/17 01:05:11;;;;;;;52.03;14.38;;;14.50;99.90;;;;;;5002357;28;20411;-67
2021/07/17 01:07:37;;;;;;;49.78;14.00;;;14.50;99.90;;;;;;4989380;28;20039;-67
2021/07/17 01:10:06;;;;;;;53.75;15.25;;;14.50;99.90;;;;;;4988882;28;20086;-67
2021/07/17 01:12:32;;;;;;;53.50;12.98;;;14.50;99.90;;;;;;4988546;28;20070;-67
2021/07/17 01:14:58;;;;;;;41.92;12.75;;;14.50;99.90;;;;;;4994771;28;20082;-67
2021/07/17 01:17:24;;;;;;;36.90;13.57;;;14.50;99.90;;;;;;4991300;28;20057;-67
2021/07/17 01:19:49;;;;;;;36.67;12.45;;;14.50;99.90;;;;;;4991662;28;20042;-67
2021/07/17 01:22:16;;;;;;;57.40;16.23;;;14.50;99.90;;;;;;5003179;28;20070;-67
2021/07/17 01:24:46;;;;;;;43.65;14.00;;;14.50;99.90;;;;;;5002864;28;20561;-67
2021/07/17 01:27:20;;;;;;;48.53;16.08;;;14.50;99.90;;;;;;4994727;28;20053;-67
2021/07/17 01:29:46;;;;;;;48.65;13.55;;;14.50;99.90;;;;;;5004274;28;20042;-67
2021/07/17 01:32:19;;;;;;;57.38;14.10;;;14.50;99.90;;;;;;5001829;28;20061;-67
2021/07/17 01:34:45;;;;;;;49.70;13.45;;;14.40;99.90;;;;;;4996238;28;20096;-67
2021/07/17 01:37:11;;;;;;;50.75;14.48;;;14.40;99.90;;;;;;5001583;28;20042;-67
2021/07/17 01:39:36;;;;;;;45.92;14.82;;;14.50;99.90;;;;;;4990279;28;20074;-67
2021/07/17 01:42:02;;;;;;;48.45;14.63;;;14.50;99.90;;;;;;4992846;28;20046;-67
2021/07/17 01:44:28;;;;;;;53.03;15.50;;;14.70;99.90;;;;;;4996297;28;20051;-67
2021/07/17 01:46:54;;;;;;;63.65;16.00;;;14.70;99.90;;;;;;4989345;28;20043;-67
2021/07/17 01:49:21;;;;;;;63.10;16.38;;;14.80;99.90;;;;;;5006807;28;20486;-67
2021/07/17 01:51:46;;;;;;;54.92;13.82;;;14.80;99.90;;;;;;4992881;28;20043;-67
2021/07/17 01:54:12;;;;;;;65.50;14.93;;;14.80;99.90;;;;;;5004134;28;20053;-67
2021/07/17 01:56:38;;;;;;;63.42;14.52;;;14.90;99.90;;;;;;5004304;28;20050;-67
2021/07/17 01:59:04;;;;;;;51.90;13.88;;;14.80;99.90;;;;;;5002797;28;20051;-67
2021/07/17 02:01:30;;;;;;;47.17;15.20;;;14.80;99.90;;;;;;5005490;28;20085;-67
2021/07/17 02:03:56;;;;;;;40.97;13.20;;;14.90;99.90;;;;;;4992206;28;20103;-67
2021/07/17 02:06:24;;;;;;;49.58;14.07;;;14.90;99.90;;;;;;4994326;28;20043;-67
2021/07/17 02:08:49;;;;;;;48.78;13.57;;;14.90;99.90;;;;;;5000199;28;20093;-67
2021/07/17 02:11:15;;;;;;;46.25;14.48;;;14.90;99.90;;;;;;5001175;28;20446;-67
2021/07/17 02:13:41;;;;;;;44.25;14.07;;;15.00;99.90;;;;;;4997646;28;20045;-67
2021/07/17 02:16:07;;;;;;;59.28;15.60;;;14.80;99.90;;;;;;5000984;28;20046;-67
2021/07/17 02:18:34;;;;;;;50.80;13.30;;;14.90;99.90;;;;;;4997127;28;20049;-67
2021/07/17 02:21:07;;;;;;;42.88;13.18;;;14.80;99.90;;;;;;5000560;28;20134;-67
2021/07/17 02:23:34;;;;;;;45.63;14.25;;;14.80;99.90;;;;;;4995777;28;20050;-66
2021/07/17 02:26:00;;;;;;;49.05;14.32;;;14.80;99.90;;;;;;4996430;28;20527;-67
2021/07/17 02:28:26;;;;;;;39.55;12.75;;;14.70;99.90;;;;;;4996687;28;20089;-67
2021/07/17 02:30:53;;;;;;;78.38;14.90;;;14.70;99.90;;;;;;4993551;28;20106;-66
2021/07/17 02:33:19;;;;;;;61.78;14.48;;;14.70;99.90;;;;;;4994434;28;20046;-67
2021/07/17 02:35:46;;;;;;;46.70;12.48;;;14.70;99.90;;;;;;4996443;28;20056;-66
2021/07/17 02:38:12;;;;;;;49.83;12.73;;;14.70;99.90;;;;;;4992588;28;20119;-67
2021/07/17 02:40:39;;;;;;;50.90;12.93;;;14.60;99.90;;;;;;5005082;28;20042;-67
2021/07/17 02:43:05;;;;;;;51.78;14.32;;;14.60;99.90;;;;;;4991852;28;20074;-67
2021/07/17 02:45:31;;;;;;;41.55;13.15;;;14.60;99.90;;;;;;4996295;28;20378;-67
2021/07/17 02:47:57;;;;;;;38.92;11.68;;;14.60;99.90;;;;;;5005197;28;20394;-67
2021/07/17 02:50:23;;;;;;;34.22;12.20;;;14.60;99.90;;;;;;4997594;28;20133;-67
2021/07/17 02:52:49;;;;;;;59.85;13.07;;;14.60;99.90;;;;;;5005482;28;20105;-67
2021/07/17 02:55:15;;;;;;;48.83;11.98;;;14.50;99.90;;;;;;4998649;28;20131;-67
2021/07/17 02:57:42;;;;;;;51.92;12.45;;;14.50;99.90;;;;;;5003985;28;20053;-67
2021/07/17 03:00:11;;;;;;;40.85;11.55;;;14.50;99.90;;;;;;5000230;28;20151;-67
2021/07/17 03:02:37;;;;;;;35.65;11.50;;;14.50;99.90;;;;;;4991231;28;20129;-67
2021/07/17 03:05:04;;;;;;;38.22;11.55;;;14.50;99.90;;;;;;4998421;28;20049;-67
2021/07/17 03:07:30;;;;;;;37.05;10.85;;;14.50;99.90;;;;;;4991346;28;20653;-67
2021/07/17 03:09:55;;;;;;;41.30;10.52;;;14.60;99.90;;;;;;4987773;28;20047;-67
2021/07/17 03:12:21;;;;;;;30.65;9.10;;;14.50;99.90;;;;;;5004799;28;20046;-67
2021/07/17 03:14:47;;;;;;;38.25;10.55;;;14.50;99.90;;;;;;5005222;28;20137;-67
2021/07/17 03:17:13;;;;;;;35.60;10.93;;;14.50;99.90;;;;;;4998609;28;20038;-66
2021/07/17 03:19:39;;;;;;;46.08;10.88;;;14.50;99.90;;;;;;4996780;28;20047;-67
2021/07/17 03:22:07;;;;;;;56.90;11.77;;;14.50;99.90;;;;;;4995439;28;20049;-67
2021/07/17 03:24:33;;;;;;;39.45;10.45;;;14.50;99.90;;;;;;4994479;28;20046;-67
2021/07/17 03:27:05;;;;;;;41.53;11.55;;;14.60;99.90;;;;;;4990429;28;20047;-67
2021/07/17 03:29:31;;;;;;;51.17;13.50;;;14.60;99.90;;;;;;4997024;28;20071;-67
2021/07/17 03:31:57;;;;;;;42.72;11.32;;;14.60;99.90;;;;;;4992235;28;20038;-67
2021/07/17 03:34:24;;;;;;;35.15;11.05;;;14.60;99.90;;;;;;4992086;28;20053;-67
2021/07/17 03:36:49;;;;;;;49.60;12.02;;;14.70;99.90;;;;;;5003622;28;20102;-67
2021/07/17 03:39:15;;;;;;;47.85;11.73;;;14.60;99.90;;;;;;4994180;28;20058;-68
2021/07/17 03:41:43;;;;;;;;;;;14.70;99.90;;;;;;4989294;28;20066;-67
2021/07/17 03:44:10;;;;;;;41.38;11.30;;;14.70;99.90;;;;;;4992395;28;19929;-67
2021/07/17 03:46:36;;;;;;;39.17;10.75;;;14.70;99.90;;;;;;5003477;28;20046;-67
2021/07/17 03:49:03;;;;;;;48.38;11.88;;;14.80;99.90;;;;;;4991899;28;20049;-67
2021/07/17 03:51:29;;;;;;;35.90;12.63;;;14.80;99.90;;;;;;4998529;28;20046;-67
2021/07/17 03:53:57;;;;;;;54.38;12.02;;;14.90;99.90;;;;;;5004436;28;20081;-67
2021/07/17 03:56:23;;;;;;;54.97;11.73;;;14.90;99.90;;;;;;5004627;28;20038;-67
2021/07/17 03:58:48;;;;;;;53.90;12.30;;;14.90;99.90;;;;;;4993381;28;20530;-67
2021/07/17 04:01:14;;;;;;;51.58;11.25;;;14.90;99.90;;;;;;4991412;28;20056;-67
2021/07/17 04:03:40;;;;;;;51.08;12.02;;;14.90;99.90;;;;;;4994973;28;20097;-67
2021/07/17 04:06:06;;;;;;;34.38;11.50;;;15.00;99.90;;;;;;4986942;28;20053;-68
2021/07/17 04:08:31;;;;;;;56.42;12.23;;;15.00;99.90;;;;;;4997465;28;20077;-68
2021/07/17 04:10:57;;;;;;;46.53;11.90;;;14.90;99.90;;;;;;4986393;28;20202;-68
2021/07/17 04:13:23;;;;;;;40.05;12.10;;;14.90;99.90;;;;;;5003013;28;20045;-67
2021/07/17 04:15:49;;;;;;;33.65;10.70;;;14.90;99.90;;;;;;5003540;28;20038;-67
2021/07/17 04:18:14;;;;;;;42.17;9.55;;;15.00;99.90;;;;;;5000480;28;20066;-68
2021/07/17 04:20:40;;;;;;;42.35;9.88;;;15.00;99.90;;;;;;4991465;28;20049;-68
2021/07/17 04:23:06;;;;;;;49.58;11.20;;;15.00;99.90;;;;;;5003707;28;20034;-68
2021/07/17 04:25:32;;;;;;;41.47;11.15;;;15.00;99.90;;;;;;4993928;28;20086;-68
2021/07/17 04:27:58;;;;;;;44.28;10.20;;;15.00;99.90;;;;;;4991876;28;20125;-68
2021/07/17 04:30:24;;;;;;;41.35;10.82;;;15.00;99.90;;;;;;4995194;28;20498;-68
2021/07/17 04:32:49;;;;;;;26.77;9.02;;;15.10;99.90;;;;;;4991521;28;20046;-68
2021/07/17 04:35:16;;;;;;;33.67;9.48;;;15.10;99.90;;;;;;5003454;28;20057;-68
2021/07/17 04:37:41;;;;;;;33.13;9.68;;;15.10;99.90;;;;;;4990302;28;20050;-68
2021/07/17 04:40:08;;;;;;;33.20;10.00;;;15.20;99.90;;;;;;4996990;28;20050;-68
2021/07/17 04:42:34;;;;;;;34.10;9.85;;;15.20;99.90;;;;;;5003257;28;20082;-68
2021/07/17 04:44:59;;;;;;;30.77;10.02;;;15.30;99.90;;;;;;5003833;28;20442;-68
2021/07/17 04:47:25;;;;;;;34.65;10.63;;;15.40;99.90;;;;;;5002877;28;20074;-68
2021/07/17 04:49:51;;;;;;;38.90;9.75;;;15.50;99.90;;;;;;4997284;28;20054;-68
2021/07/17 04:52:16;;;;;;;29.40;8.88;;;15.60;99.90;;;;;;4990770;28;20134;-68
2021/07/17 04:54:42;;;;;;;28.85;8.52;;;15.70;99.90;;;;;;4984916;28;20058;-68
2021/07/17 04:57:08;;;;;;;30.25;8.68;;;15.90;99.90;;;;;;4991695;28;20058;-68
2021/07/17 04:59:34;;;;;;;29.45;8.55;;;15.90;99.90;;;;;;4998586;28;20047;-68
2021/07/17 05:01:59;;;;;;;28.55;9.02;;;16.10;99.90;;;;;;4992142;28;20046;-68
2021/07/17 05:04:25;;;;;;;29.90;7.80;;;16.10;99.90;;;;;;4986630;28;20107;-68
2021/07/17 05:06:51;;;;;;;35.90;7.90;;;16.30;99.90;;;;;;4995659;28;20065;-68
2021/07/17 05:09:17;;;;;;;29.60;7.72;;;16.40;99.90;;;;;;5002250;28;20050;-68
2021/07/17 05:11:42;;;;;;;25.52;7.28;;;16.40;99.90;;;;;;5001715;28;20054;-67
2021/07/17 05:14:08;;;;;;;31.80;8.00;;;16.60;99.90;;;;;;5000651;28;20046;-68
2021/07/17 05:16:34;;;;;;;32.72;7.47;;;16.60;99.90;;;;;;5006412;28;20076;-67
2021/07/17 05:18:59;;;;;;;26.02;7.05;;;16.60;99.90;;;;;;4998357;28;20098;-68
2021/07/17 05:21:25;;;;;;;26.45;7.82;;;16.80;99.90;;;;;;4997061;28;20105;-68
2021/07/17 05:23:51;;;;;;;25.00;6.55;;;16.90;99.90;;;;;;4998897;28;20049;-68
2021/07/17 05:26:17;;;;;;;24.45;7.28;;;17.00;99.90;;;;;;5005824;28;20044;-67
2021/07/17 05:28:43;;;;;;;17.48;5.68;;;17.00;99.90;;;;;;4997773;28;20078;-68
2021/07/17 05:31:09;;;;;;;25.08;6.35;;;17.10;99.90;;;;;;4995828;28;20042;-67
2021/07/17 05:33:34;;;;;;;27.23;6.45;;;17.20;99.90;;;;;;4993879;28;20462;-68
2021/07/17 05:36:00;;;;;;;20.55;6.00;;;17.20;99.90;;;;;;5004847;28;20449;-68
2021/07/17 05:38:26;;;;;;;16.48;4.75;;;17.30;99.90;;;;;;5006775;28;20064;-68
2021/07/17 05:40:52;;;;;;;20.52;4.85;;;17.40;99.90;;;;;;4992081;28;20077;-67
2021/07/17 05:43:18;;;;;;;26.58;5.88;;;17.40;99.90;;;;;;4999234;28;20051;-67
2021/07/17 05:45:44;;;;;;;18.08;5.30;;;17.50;99.90;;;;;;4992030;28;20053;-67
2021/07/17 05:48:09;;;;;;;14.73;4.07;;;17.60;99.90;;;;;;4999961;28;20049;-67
2021/07/17 05:50:35;;;;;;;20.45;4.70;;;17.60;99.90;;;;;;4993450;28;20073;-67
2021/07/17 05:53:09;;;;;;;19.92;5.47;;;17.70;99.90;;;;;;5000279;28;20043;-67
2021/07/17 05:55:35;;;;;;;15.38;5.45;;;17.80;99.90;;;;;;5005218;28;20065;-67
2021/07/17 05:58:00;;;;;;;15.55;3.70;;;17.80;99.90;;;;;;5002565;28;20039;-68
2021/07/17 06:00:26;;;;;;;20.70;4.63;;;17.90;99.90;;;;;;4992960;28;20050;-68
2021/07/17 06:02:52;;;;;;;15.93;4.95;;;18.00;99.90;;;;;;5000370;28;20045;-68
2021/07/17 06:05:18;;;;;;;16.55;4.72;;;18.10;99.90;;;;;;4993648;28;20051;-68
2021/07/17 06:07:43;;;;;;;17.25;3.72;;;18.10;99.90;;;;;;5001023;28;20049;-68
2021/07/17 06:10:10;;;;;;;15.77;3.78;;;18.20;99.90;;;;;;4999115;28;20045;-68
2021/07/17 06:12:35;;;;;;;14.18;3.78;;;18.30;99.90;;;;;;4999342;28;20054;-68
2021/07/17 06:15:01;;;;;;;11.75;2.95;;;18.30;99.90;;;;;;4995603;28;20046;-67
2021/07/17 06:17:27;;;;;;;14.43;4.18;;;18.40;99.90;;;;;;4986672;28;20507;-67
2021/07/17 06:19:53;;;;;;;17.33;4.43;;;18.50;99.90;;;;;;4999526;28;20053;-67
2021/07/17 06:22:18;;;;;;;17.42;3.47;;;18.60;99.90;;;;;;4995391;28;20050;-68
2021/07/17 06:24:44;;;;;;;17.25;4.25;;;18.70;99.90;;;;;;5004310;28;20057;-67
2021/07/17 06:27:10;;;;;;;22.83;4.80;;;18.90;99.90;;;;;;4994700;28;20050;-66
2021/07/17 06:29:36;;;;;;;13.40;3.38;;;18.90;99.90;;;;;;4992374;28;20065;-66
2021/07/17 06:32:06;;;;;;;16.98;3.78;;;19.00;99.90;;;;;;4995484;28;20042;-66
2021/07/17 06:34:32;;;;;;;10.68;3.42;;;19.00;99.90;;;;;;5003950;28;20513;-66
2021/07/17 06:36:59;;;;;;;16.08;4.97;;;19.10;99.90;;;;;;4997398;28;20046;-66
2021/07/17 06:39:25;;;;;;;13.75;3.95;;;19.10;99.90;;;;;;4990380;28;20089;-66
2021/07/17 06:41:50;;;;;;;9.38;3.28;;;19.20;99.90;;;;;;4997025;28;20054;-66
2021/07/17 06:44:16;;;;;;;13.52;3.78;;;19.30;99.90;;;;;;4991354;28;20050;-66
2021/07/17 06:46:42;;;;;;;11.00;3.28;;;19.40;99.90;;;;;;4997149;28;20059;-66
2021/07/17 06:49:08;;;;;;;13.43;3.53;;;19.60;99.90;;;;;;5005391;28;20046;-67
2021/07/17 06:51:34;;;;;;;11.05;3.45;;;19.60;99.90;;;;;;4999089;28;20130;-67
2021/07/17 06:54:00;;;;;;;11.80;3.50;;;19.60;99.90;;;;;;4991335;28;20047;-67
2021/07/17 06:56:26;;;;;;;15.23;3.30;;;19.70;99.90;;;;;;4998936;28;20119;-67
2021/07/17 06:58:52;;;;;;;12.90;3.90;;;19.70;99.90;;;;;;4991964;28;20055;-67
2021/07/17 07:01:18;;;;;;;11.70;2.88;;;19.70;99.90;;;;;;5001268;28;20042;-66
2021/07/17 07:03:44;;;;;;;11.20;3.30;;;19.60;99.90;;;;;;4996385;28;20047;-66
2021/07/17 07:06:10;;;;;;;25.98;4.38;;;19.60;99.90;;;;;;4998255;28;20049;-66
2021/07/17 07:08:36;;;;;;;13.32;3.28;;;19.70;99.90;;;;;;4991918;28;20098;-66
2021/07/17 07:11:02;;;;;;;15.60;3.20;;;19.80;99.90;;;;;;4998416;28;20077;-66
2021/07/17 07:13:28;;;;;;;14.25;3.63;;;20.00;99.90;;;;;;4998956;28;20046;-66
2021/07/17 07:15:54;;;;;;;10.10;2.58;;;20.00;99.90;;;;;;4996366;28;20491;-66
2021/07/17 07:18:20;;;;;;;14.85;3.53;;;20.00;99.90;;;;;;5001070;28;20042;-66
2021/07/17 07:20:46;;;;;;;6.38;2.30;;;20.20;99.90;;;;;;4993734;28;20046;-67
2021/07/17 07:23:13;;;;;;;19.00;3.42;;;20.20;99.90;;;;;;5004551;28;20050;-66
2021/07/17 07:25:39;;;;;;;12.50;3.70;;;20.30;99.90;;;;;;4994003;28;20097;-67
2021/07/17 07:28:05;;;;;;;16.98;3.10;;;20.30;99.90;;;;;;4994201;28;20125;-66
2021/07/17 07:30:31;;;;;;;10.13;3.20;;;20.40;99.90;;;;;;4992110;28;20046;-66
2021/07/17 07:32:57;;;;;;;9.77;2.67;;;20.20;99.90;;;;;;4992504;28;20049;-66
2021/07/17 07:35:24;;;;;;;14.82;3.38;;;20.10;99.90;;;;;;4994754;28;20148;-66
2021/07/17 07:37:52;;;;;;;11.45;2.55;;;20.20;99.90;;;;;;4991153;28;20046;-66
2021/07/17 07:40:19;;;;;;;10.77;3.45;;;20.40;99.90;;;;;;5004471;28;20057;-66
2021/07/17 07:42:45;;;;;;;8.00;2.65;;;20.50;99.90;;;;;;4987998;28;20057;-66
2021/07/17 07:45:12;;;;;;;11.77;2.80;;;20.30;99.90;;;;;;4994755;28;20055;-66
2021/07/17 07:47:38;;;;;;;13.02;2.97;;;20.50;99.90;;;;;;4988421;28;20528;-66
2021/07/17 07:50:05;;;;;;;12.32;2.88;;;20.30;99.90;;;;;;5004647;28;20074;-66
2021/07/17 07:52:32;;;;;;;7.63;2.85;;;20.60;99.90;;;;;;4989598;28;20498;-66
2021/07/17 07:54:57;;;;;;;10.95;2.60;;;20.50;99.90;;;;;;4996375;28;20074;-66
2021/07/17 07:57:23;;;;;;;9.68;3.10;;;20.50;99.90;;;;;;4989115;28;20414;-66
2021/07/17 07:59:49;;;;;;;10.02;3.28;;;20.70;99.90;;;;;;4996727;28;20043;-66
2021/07/17 08:02:15;;;;;;;7.82;2.58;;;20.80;99.90;;;;;;5000194;28;20042;-66
2021/07/17 08:04:41;;;;;;;10.77;2.67;;;20.90;99.90;;;;;;5000909;28;20042;-66
2021/07/17 08:07:07;;;;;;;10.98;2.72;;;20.80;99.90;;;;;;4989698;28;20101;-66
2021/07/17 08:09:32;;;;;;;11.60;2.90;;;20.70;99.90;;;;;;4999042;28;20042;-66
2021/07/17 08:11:58;;;;;;;12.98;3.00;;;20.90;99.90;;;;;;4996730;28;20046;-67
2021/07/17 08:14:24;;;;;;;11.43;3.35;;;21.20;99.90;;;;;;4996095;28;20050;-66
2021/07/17 08:16:49;;;;;;;7.88;2.72;;;21.10;99.90;;;;;;4990176;28;20062;-66
2021/07/17 08:19:16;;;;;;;11.32;3.55;;;21.10;99.90;;;;;;4994802;28;20054;-66
2021/07/17 08:21:43;;;;;;;13.43;2.45;;;21.10;99.90;;;;;;5003258;28;20054;-66
2021/07/17 08:24:08;;;;;;;13.10;2.40;;;21.10;99.90;;;;;;4988007;28;20121;-66
2021/07/17 08:26:35;;;;;;;10.35;2.05;;;21.20;99.90;;;;;;4995027;28;20046;-66
2021/07/17 08:29:01;;;;;;;12.57;2.13;;;21.20;99.90;;;;;;4990147;28;20054;-65
2021/07/17 08:31:26;;;;;;;7.05;2.40;;;21.20;99.90;;;;;;4989331;28;20039;-66
2021/07/17 08:33:52;;;;;;;6.78;1.88;;;21.20;99.90;;;;;;5003400;28;20051;-66
2021/07/17 08:36:18;;;;;;;8.48;2.38;;;21.20;99.90;;;;;;5003258;28;20046;-66
2021/07/17 08:38:44;;;;;;;13.98;3.10;;;21.40;99.90;;;;;;5002294;28;20055;-66
2021/07/17 08:41:11;;;;;;;7.47;2.08;;;21.30;99.90;;;;;;4989998;28;20121;-66
2021/07/17 08:43:38;;;;;;;8.63;2.13;;;21.20;99.90;;;;;;5003174;28;20076;-66
2021/07/17 08:46:04;;;;;;;7.88;2.30;;;21.20;99.90;;;;;;4988989;28;20177;-66
2021/07/17 08:48:32;;;;;;;7.50;2.17;;;21.30;99.90;;;;;;4994186;28;20054;-66
2021/07/17 08:51:02;;;;;;;8.90;1.83;;;21.60;99.90;;;;;;5003369;28;20058;-66
2021/07/17 08:53:28;;;;;;;5.28;1.48;;;21.50;99.90;;;;;;4995225;28;20448;-66
2021/07/17 08:55:54;;;;;;;8.82;3.00;;;21.70;99.90;;;;;;4987845;28;20047;-66
2021/07/17 08:58:21;;;;;;;9.82;2.30;;;21.80;99.90;;;;;;4995271;28;20101;-66
2021/07/17 09:00:47;;;;;;;10.77;2.30;;;21.90;99.90;;;;;;4999733;28;20076;-66
2021/07/17 09:03:16;;;;;;;9.52;2.55;;;21.60;99.90;;;;;;4997932;28;20054;-66
2021/07/17 09:05:48;;;;;;;9.15;2.38;;;21.60;99.90;;;;;;4988826;28;20085;-66
2021/07/17 09:08:17;;;;;;;8.95;1.83;;;21.60;99.90;;;;;;4997643;28;20054;-66
2021/07/17 09:10:49;;;;;;;9.88;2.25;;;21.40;99.90;;;;;;4993291;28;20111;-66
2021/07/17 09:13:19;;;;;;;11.32;2.47;;;21.50;99.90;;;;;;4995491;28;20070;-66
2021/07/17 09:15:48;;;;;;;8.13;2.75;;;21.60;99.90;;;;;;4998334;28;20057;-66
2021/07/17 09:18:23;;;;;;;8.38;2.45;;;21.70;99.90;;;;;;5002734;28;20061;-66
2021/07/17 09:21:00;;;;;;;11.13;3.10;;;21.60;99.90;;;;;;4993054;28;20113;-66
2021/07/17 09:23:35;;;;;;;13.70;2.90;;;21.80;99.90;;;;;;4985914;28;20055;-65
2021/07/17 09:26:14;;;;;;;7.32;2.10;;;21.80;99.90;;;;;;4992553;28;20046;-66
2021/07/17 09:28:41;;;;;;;9.40;2.20;;;21.80;99.90;;;;;;4986365;28;20047;-66
2021/07/17 09:31:08;;;;;;;7.47;2.13;;;21.80;99.90;;;;;;4995680;28;20047;-66
2021/07/17 09:33:35;;;;;;;10.05;2.47;;;21.70;99.90;;;;;;4986218;28;20046;-66
2021/07/17 09:36:02;;;;;;;7.82;2.17;;;22.00;99.90;;;;;;4997128;28;20043;-66
2021/07/17 09:38:32;;;;;;;10.88;2.03;;;21.80;99.90;;;;;;4985883;28;20055;-65
2021/07/17 09:41:05;;;;;;;10.88;2.20;;;21.70;99.90;;;;;;4992812;28;20039;-66
2021/07/17 09:43:41;;;;;;;10.55;2.25;;;21.60;99.90;;;;;;4986440;28;20046;-66
2021/07/17 09:46:24;;;;;;;4.32;1.73;;;21.50;99.90;;;;;;4997318;28;20057;-66
2021/07/17 09:48:55;;;;;;;10.57;1.95;;;21.50;99.90;;;;;;4991262;28;20050;-66
2021/07/17 09:51:30;;;;;;;14.93;2.80;;;21.70;99.90;;;;;;5000100;28;20134;-66
2021/07/17 09:54:05;;;;;;;6.20;2.15;;;21.80;99.90;;;;;;4990189;28;20472;-65
2021/07/17 09:56:36;;;;;;;4.38;2.20;;;22.00;99.90;;;;;;4996661;28;20046;-66
2021/07/17 09:59:05;;;;;;;6.90;1.80;;;22.00;99.90;;;;;;4990542;28;20102;-65
2021/07/17 10:01:37;;;;;;;6.13;1.80;;;21.70;99.90;;;;;;4999935;28;20051;-66
2021/07/17 10:04:12;;;;;;;9.52;1.92;;;21.70;99.90;;;;;;4990409;28;20498;-65
2021/07/17 10:06:44;;;;;;;7.03;1.50;;;21.60;99.90;;;;;;5005626;28;20042;-65
2021/07/17 10:09:12;;;;;;;9.43;2.22;;;21.60;99.90;;;;;;4994452;28;20066;-65
2021/07/17 10:11:39;;;;;;;6.45;1.48;;;21.70;99.90;;;;;;5001268;28;20054;-65
2021/07/17 10:14:29;;;;;;;6.97;1.88;;;21.90;99.90;;;;;;4995416;28;20514;-65
2021/07/17 10:16:58;;;;;;;5.25;1.95;;;21.70;99.90;;;;;;5005477;28;20470;-65
2021/07/17 10:19:26;;;;;;;7.28;1.58;;;21.60;99.90;;;;;;4994111;28;20043;-65
2021/07/17 10:21:53;;;;;;;3.97;1.40;;;21.70;99.90;;;;;;5001425;28;20046;-65
2021/07/17 10:24:20;;;;;;;8.25;1.80;;;21.80;99.90;;;;;;4994412;28;20499;-65
2021/07/17 10:26:48;;;;;;;7.23;1.60;;;21.60;99.90;;;;;;4992659;28;20078;-65
2021/07/17 10:29:16;;;;;;;6.15;1.67;;;21.70;99.90;;;;;;5004965;28;20042;-65
2021/07/17 10:31:43;;;;;;;8.13;2.15;;;21.80;99.90;;;;;;4993703;28;20047;-66
2021/07/17 10:34:09;;;;;;;8.60;2.17;;;22.00;99.90;;;;;;4994734;28;20058;-66
2021/07/17 10:36:46;;;;;;;8.82;2.65;;;22.10;99.90;;;;;;4987625;28;20042;-66
2021/07/17 10:39:14;;;;;;;4.55;1.67;;;22.10;99.90;;;;;;4994089;28;20067;-66
2021/07/17 10:41:43;;;;;;;5.93;1.50;;;22.00;99.90;;;;;;4987490;28;20593;-66
2021/07/17 10:44:09;;;;;;;3.63;1.08;;;21.90;99.90;;;;;;4999634;28;20129;-66
2021/07/17 10:46:37;;;;;;;4.18;1.40;;;22.10;99.90;;;;;;4995490;28;20483;-66
2021/07/17 10:49:07;;;;;;;7.88;2.50;;;22.20;99.90;;;;;;5005469;28;20136;-66
2021/07/17 10:51:50;;;;;;;5.13;1.30;;;22.30;99.90;;;;;;4998223;28;20047;-66
2021/07/17 10:54:30;;;;;;;5.63;1.40;;;22.30;99.90;;;;;;4994923;28;20073;-66
2021/07/17 10:56:56;;;;;;;4.55;1.17;;;22.20;99.90;;;;;;4987980;28;20054;-66
2021/07/17 10:59:22;;;;;;;4.82;1.40;;;22.20;99.90;;;;;;4995571;28;20046;-66
2021/07/17 11:02:07;;;;;;;5.85;1.67;;;22.40;99.90;;;;;;4993965;28;20124;-66
2021/07/17 11:04:54;;;;;;;4.57;1.33;;;22.60;99.90;;;;;;5002828;28;20077;-66
2021/07/17 11:07:23;;;;;;;4.55;1.50;;;22.40;99.90;;;;;;4988714;28;20042;-66
2021/07/17 11:09:51;;;;;;;3.72;1.60;;;22.40;99.90;;;;;;5001306;28;20130;-66
2021/07/17 11:12:17;;;;;;;5.20;1.50;;;22.30;99.90;;;;;;4995064;28;20043;-66
2021/07/17 11:14:43;;;;;;;5.63;1.92;;;22.20;99.90;;;;;;5000669;28;20387;-66
2021/07/17 11:17:09;;;;;;;5.68;1.70;;;22.40;99.90;;;;;;4996727;28;20102;-66
2021/07/17 11:19:35;;;;;;;3.35;1.30;;;22.60;99.90;;;;;;4995448;28;20046;-66
2021/07/17 11:22:12;;;;;;;5.47;1.65;;;22.70;99.90;;;;;;4992003;28;20105;-65
2021/07/17 11:24:40;;;;;;;5.00;1.80;;;22.70;99.90;;;;;;4995178;28;20049;-67
2021/07/17 11:27:15;;;;;;;8.80;1.90;;;22.60;99.90;;;;;;5002268;28;20133;-67
2021/07/17 11:29:45;;;;;;;6.80;2.45;;;22.30;99.90;;;;;;4994719;28;20046;-66
2021/07/17 11:32:12;;;;;;;5.90;1.80;;;22.60;99.90;;;;;;5002371;28;20065;-66
2021/07/17 11:34:43;;;;;;;2.50;1.05;;;22.80;99.90;;;;;;4992994;28;20046;-66
2021/07/17 11:37:11;;;;;;;5.05;1.63;;;22.90;99.90;;;;;;4997485;28;20054;-66
2021/07/17 11:39:40;;;;;;;4.00;1.30;;;22.70;99.90;;;;;;4997096;28;20065;-66
2021/07/17 11:42:09;;;;;;;6.00;1.73;;;22.70;99.90;;;;;;4998138;28;20057;-66
2021/07/17 11:44:39;;;;;;;7.95;2.40;;;23.00;99.90;;;;;;4991751;28;20038;-66
2021/07/17 11:47:14;;;;;;;2.78;0.82;;;23.60;99.90;;;;;;5003845;28;20092;-66
2021/07/17 11:49:47;;;;;;;4.55;1.20;;;23.80;99.90;;;;;;4991648;28;20046;-66
2021/07/17 11:52:16;;;;;;;4.75;1.38;;;23.90;99.90;;;;;;5003731;28;20379;-65
2021/07/17 11:54:50;;;;;;;5.80;1.20;;;23.90;99.90;;;;;;4986863;28;20050;-66
2021/07/17 11:57:19;;;;;;;3.80;1.05;;;24.10;99.90;;;;;;4991098;28;20046;-66
2021/07/17 11:59:57;;;;;;;4.32;1.33;;;24.20;99.90;;;;;;4987858;28;20057;-67
2021/07/17 12:02:25;;;;;;;5.72;1.17;;;24.40;99.90;;;;;;4991391;28;20042;-66
2021/07/17 12:04:53;;;;;;;3.10;1.00;;;;;;;;;;5004000;28;20094;-66
2021/07/17 12:07:24;;;;;;;4.18;1.23;;;25.10;99.90;;;;;;4998775;28;20042;-66
2021/07/17 12:09:52;;;;;;;4.13;1.27;;;24.60;99.90;;;;;;4988723;28;20049;-65
2021/07/17 12:12:20;;;;;;;3.53;1.20;;;24.90;99.90;;;;;;4993591;28;20048;-65
2021/07/17 12:14:47;;;;;;;4.15;1.20;;;24.80;99.90;;;;;;4990743;28;20050;-64
2021/07/17 12:17:21;;;;;;;3.70;1.20;;;24.80;99.90;;;;;;4991593;28;20046;-65
2021/07/17 12:19:58;;;;;;;3.70;0.93;;;24.60;99.90;;;;;;4998294;28;20114;-65
2021/07/17 12:22:24;;;;;;;3.92;0.90;;;25.00;99.90;;;;;;4989401;28;20106;-65
2021/07/17 12:25:03;;;;;;;2.00;0.80;;;25.30;99.90;;;;;;4996680;28;20062;-65
2021/07/17 12:27:29;;;;;;;3.75;1.38;;;24.90;99.90;;;;;;4990255;28;20038;-65
2021/07/17 12:29:55;;;;;;;3.47;1.13;;;25.00;99.90;;;;;;5003127;28;20521;-65
2021/07/17 12:32:21;;;;;;;3.27;1.10;;;25.50;99.90;;;;;;4989733;28;20100;-65
2021/07/17 12:34:54;;;;;;;3.63;1.37;;;26.00;99.90;;;;;;4996448;28;20038;-65
2021/07/17 12:37:30;;;;;;;2.22;0.82;;;25.60;99.90;;;;;;4990071;28;20089;-65
2021/07/17 12:40:23;;;;;;;1.98;0.90;;;25.00;99.90;;;;;;4996687;28;20062;-65